sensor_id;sensor_type;location;lat;lon;timestamp;pressure;altitude;pressure_sealevel;temperature;humidity
79690;BME280;69156;55.932;-3.238;2023-11-19T00:01:03;98731.45;;;12.49;100.00
79690;BME280;69156;55.932;-3.238;2023-11-19T00:03:28;98725.19;;;12.44;100.00
79690;BME280;69156;55.932;-3.238;2023-11-19T00:05:53;98731.82;;;12.40;100.00
79690;BME280;69156;55.932;-3.238;2023-11-19T00:08:19;98725.06;;;12.50;100.00
79690;BME280;69156;55.932;-3.238;2023-11-19T00:10:44;98732.46;;;12.44;100.00
79690;BME280;69156;55.932;-3.238;2023-11-19T00:13:10;98729.99;;;12.48;100.00
79690;BME280;69156;55.932;-3.238;2023-11-19T00:15:36;98727.40;;;12.52;100.00
79690;BME280;69156;55.932;-3.238;2023-11-19T00:18:01;98716.81;;;12.37;100.00
79690;BME280;69156;55.932;-3.238;2023-11-19T00:20:27;98731.90;;;12.43;100.00
79690;BME280;69156;55.932;-3.238;2023-11-19T00:22:52;98725.45;;;12.46;100.00
79690;BME280;69156;55.932;-3.238;2023-11-19T00:25:19;98718.51;;;12.49;100.00
79690;BME280;69156;55.932;-3.238;2023-11-19T00:27:43;98722.33;;;12.40;100.00
79690;BME280;69156;55.932;-3.238;2023-11-19T00:30:09;98718.43;;;12.39;100.00
79690;BME280;69156;55.932;-3.238;2023-11-19T00:32:34;98713.09;;;12.48;100.00
79690;BME280;69156;55.932;-3.238;2023-11-19T00:34:59;98720.91;;;12.46;100.00
79690;BME280;69156;55.932;-3.238;2023-11-19T00:37:24;98717.71;;;12.34;100.00
79690;BME280;69156;55.932;-3.238;2023-11-19T00:39:50;98709.54;;;12.28;100.00
79690;BME280;69156;55.932;-3.238;2023-11-19T00:42:15;98713.06;;;12.26;100.00
79690;BME280;69156;55.932;-3.238;2023-11-19T00:44:41;98713.99;;;12.20;100.00
79690;BME280;69156;55.932;-3.238;2023-11-19T00:47:06;98713.72;;;12.18;100.00
79690;BME280;69156;55.932;-3.238;2023-11-19T00:49:31;98712.66;;;12.15;100.00
79690;BME280;69156;55.932;-3.238;2023-11-19T00:51:57;98715.26;;;12.11;100.00
79690;BME280;69156;55.932;-3.238;2023-11-19T00:54:22;98708.72;;;12.19;100.00
79690;BME280;69156;55.932;-3.238;2023-11-19T00:56:48;98705.13;;;12.08;100.00
79690;BME280;69156;55.932;-3.238;2023-11-19T00:59:13;98713.55;;;12.16;100.00
79690;BME280;69156;55.932;-3.238;2023-11-19T01:01:39;98704.06;;;12.15;100.00
79690;BME280;69156;55.932;-3.238;2023-11-19T01:04:04;98694.70;;;12.21;100.00
79690;BME280;69156;55.932;-3.238;2023-11-19T01:06:30;98709.48;;;11.97;100.00
79690;BME280;69156;55.932;-3.238;2023-11-19T01:08:55;98706.80;;;11.80;100.00
79690;BME280;69156;55.932;-3.238;2023-11-19T01:11:20;98711.01;;;11.87;100.00
79690;BME280;69156;55.932;-3.238;2023-11-19T01:13:46;98711.67;;;11.86;100.00
79690;BME280;69156;55.932;-3.238;2023-11-19T01:16:12;98712.41;;;12.00;100.00
79690;BME280;69156;55.932;-3.238;2023-11-19T01:18:37;98705.76;;;12.07;100.00
79690;BME280;69156;55.932;-3.238;2023-11-19T01:21:03;98707.34;;;11.96;100.00
79690;BME280;69156;55.932;-3.238;2023-11-19T01:23:28;98713.78;;;12.02;100.00
79690;BME280;69156;55.932;-3.238;2023-11-19T01:25:54;98713.49;;;12.03;100.00
79690;BME280;69156;55.932;-3.238;2023-11-19T01:28:19;98711.30;;;12.00;100.00
79690;BME280;69156;55.932;-3.238;2023-11-19T01:30:45;98703.25;;;12.08;100.00
79690;BME280;69156;55.932;-3.238;2023-11-19T01:33:11;98706.79;;;12.11;100.00
79690;BME280;69156;55.932;-3.238;2023-11-19T01:35:36;98708.40;;;11.98;100.00
79690;BME280;69156;55.932;-3.238;2023-11-19T01:38:01;98713.21;;;12.11;100.00
79690;BME280;69156;55.932;-3.238;2023-11-19T01:40:27;98707.50;;;12.02;100.00
79690;BME280;69156;55.932;-3.238;2023-11-19T01:42:52;98704.00;;;12.02;100.00
79690;BME280;69156;55.932;-3.238;2023-11-19T01:45:27;98704.57;;;12.02;100.00
79690;BME280;69156;55.932;-3.238;2023-11-19T01:47:43;98703.34;;;11.94;100.00
79690;BME280;69156;55.932;-3.238;2023-11-19T01:50:09;98705.83;;;11.93;100.00
79690;BME280;69156;55.932;-3.238;2023-11-19T01:52:34;98688.50;;;11.99;100.00
79690;BME280;69156;55.932;-3.238;2023-11-19T01:55:00;98707.64;;;12.00;100.00
79690;BME280;69156;55.932;-3.238;2023-11-19T01:57:26;98698.92;;;11.85;100.00
79690;BME280;69156;55.932;-3.238;2023-11-19T01:59:52;98704.58;;;12.04;100.00
79690;BME280;69156;55.932;-3.238;2023-11-19T02:02:17;98708.73;;;11.85;100.00
79690;BME280;69156;55.932;-3.238;2023-11-19T02:04:42;98710.37;;;11.90;100.00
79690;BME280;69156;55.932;-3.238;2023-11-19T02:07:08;98712.58;;;11.79;100.00
79690;BME280;69156;55.932;-3.238;2023-11-19T02:09:33;98713.50;;;11.97;100.00
79690;BME280;69156;55.932;-3.238;2023-11-19T02:11:58;98711.50;;;11.92;100.00
79690;BME280;69156;55.932;-3.238;2023-11-19T02:14:25;98709.90;;;11.80;100.00
79690;BME280;69156;55.932;-3.238;2023-11-19T02:16:49;98712.09;;;11.94;100.00
79690;BME280;69156;55.932;-3.238;2023-11-19T02:19:15;98710.68;;;11.99;100.00
79690;BME280;69156;55.932;-3.238;2023-11-19T02:21:40;98708.99;;;12.09;100.00
79690;BME280;69156;55.932;-3.238;2023-11-19T02:24:12;98701.93;;;11.88;100.00
79690;BME280;69156;55.932;-3.238;2023-11-19T02:26:36;98697.91;;;11.86;100.00
79690;BME280;69156;55.932;-3.238;2023-11-19T02:28:57;98694.14;;;11.91;100.00
79690;BME280;69156;55.932;-3.238;2023-11-19T02:31:22;98687.68;;;11.93;100.00
79690;BME280;69156;55.932;-3.238;2023-11-19T02:33:47;98694.02;;;11.87;100.00
79690;BME280;69156;55.932;-3.238;2023-11-19T02:36:12;98693.48;;;11.88;100.00
79690;BME280;69156;55.932;-3.238;2023-11-19T02:38:38;98690.37;;;11.75;100.00
79690;BME280;69156;55.932;-3.238;2023-11-19T02:41:04;98692.62;;;11.72;100.00
79690;BME280;69156;55.932;-3.238;2023-11-19T02:43:28;98688.93;;;11.75;100.00
79690;BME280;69156;55.932;-3.238;2023-11-19T02:45:54;98690.13;;;11.63;100.00
79690;BME280;69156;55.932;-3.238;2023-11-19T02:48:19;98690.36;;;11.73;100.00
79690;BME280;69156;55.932;-3.238;2023-11-19T02:50:45;98696.54;;;11.62;100.00
79690;BME280;69156;55.932;-3.238;2023-11-19T02:53:10;98699.98;;;11.79;100.00
79690;BME280;69156;55.932;-3.238;2023-11-19T02:55:35;98703.81;;;11.60;100.00
79690;BME280;69156;55.932;-3.238;2023-11-19T02:58:01;98697.58;;;11.71;100.00
79690;BME280;69156;55.932;-3.238;2023-11-19T03:00:27;98710.01;;;11.68;100.00
79690;BME280;69156;55.932;-3.238;2023-11-19T03:02:52;98701.59;;;11.80;100.00
79690;BME280;69156;55.932;-3.238;2023-11-19T03:05:18;98705.13;;;11.76;100.00
79690;BME280;69156;55.932;-3.238;2023-11-19T03:07:44;98699.71;;;11.77;100.00
79690;BME280;69156;55.932;-3.238;2023-11-19T03:10:10;98699.05;;;11.81;100.00
79690;BME280;69156;55.932;-3.238;2023-11-19T03:12:35;98703.41;;;11.81;100.00
79690;BME280;69156;55.932;-3.238;2023-11-19T03:15:00;98697.45;;;11.81;100.00
79690;BME280;69156;55.932;-3.238;2023-11-19T03:17:26;98681.97;;;11.71;100.00
79690;BME280;69156;55.932;-3.238;2023-11-19T03:19:51;98680.02;;;11.72;100.00
79690;BME280;69156;55.932;-3.238;2023-11-19T03:22:16;98688.34;;;11.61;100.00
79690;BME280;69156;55.932;-3.238;2023-11-19T03:24:42;98681.57;;;11.57;100.00
79690;BME280;69156;55.932;-3.238;2023-11-19T03:27:08;98681.70;;;11.44;100.00
79690;BME280;69156;55.932;-3.238;2023-11-19T03:29:33;98675.90;;;11.66;100.00
79690;BME280;69156;55.932;-3.238;2023-11-19T03:31:58;98668.96;;;11.69;100.00
79690;BME280;69156;55.932;-3.238;2023-11-19T03:34:23;98673.40;;;11.59;100.00
79690;BME280;69156;55.932;-3.238;2023-11-19T03:36:48;98679.99;;;11.64;100.00
79690;BME280;69156;55.932;-3.238;2023-11-19T03:39:14;98677.31;;;11.38;100.00
79690;BME280;69156;55.932;-3.238;2023-11-19T03:41:41;98685.67;;;11.40;100.00
79690;BME280;69156;55.932;-3.238;2023-11-19T03:44:07;98683.08;;;11.58;100.00
79690;BME280;69156;55.932;-3.238;2023-11-19T03:46:31;98686.16;;;11.52;100.00
79690;BME280;69156;55.932;-3.238;2023-11-19T03:48:57;98689.87;;;11.43;100.00
79690;BME280;69156;55.932;-3.238;2023-11-19T03:51:22;98679.09;;;11.51;100.00
79690;BME280;69156;55.932;-3.238;2023-11-19T03:53:47;98679.81;;;11.56;100.00
79690;BME280;69156;55.932;-3.238;2023-11-19T03:56:12;98675.15;;;11.40;100.00
79690;BME280;69156;55.932;-3.238;2023-11-19T03:58:38;98672.80;;;11.53;100.00
79690;BME280;69156;55.932;-3.238;2023-11-19T04:01:03;98687.30;;;11.49;100.00
79690;BME280;69156;55.932;-3.238;2023-11-19T04:03:28;98685.44;;;11.48;100.00
79690;BME280;69156;55.932;-3.238;2023-11-19T04:05:54;98690.75;;;11.41;100.00
79690;BME280;69156;55.932;-3.238;2023-11-19T04:08:20;98697.80;;;11.51;100.00
79690;BME280;69156;55.932;-3.238;2023-11-19T04:10:46;98698.27;;;11.45;100.00
79690;BME280;69156;55.932;-3.238;2023-11-19T04:13:11;98701.57;;;11.33;100.00
79690;BME280;69156;55.932;-3.238;2023-11-19T04:15:36;98702.93;;;11.27;100.00
79690;BME280;69156;55.932;-3.238;2023-11-19T04:18:01;98707.46;;;11.38;100.00
79690;BME280;69156;55.932;-3.238;2023-11-19T04:20:27;98707.41;;;11.35;100.00
79690;BME280;69156;55.932;-3.238;2023-11-19T04:22:52;98714.24;;;11.39;100.00
79690;BME280;69156;55.932;-3.238;2023-11-19T04:25:17;98718.11;;;11.45;100.00
79690;BME280;69156;55.932;-3.238;2023-11-19T04:27:43;98716.71;;;11.41;100.00
79690;BME280;69156;55.932;-3.238;2023-11-19T04:30:08;98723.59;;;11.45;100.00
79690;BME280;69156;55.932;-3.238;2023-11-19T04:32:33;98731.04;;;11.41;100.00
79690;BME280;69156;55.932;-3.238;2023-11-19T04:34:58;98727.38;;;11.31;100.00
79690;BME280;69156;55.932;-3.238;2023-11-19T04:37:24;98735.27;;;11.42;100.00
79690;BME280;69156;55.932;-3.238;2023-11-19T04:39:49;98736.50;;;11.40;100.00
79690;BME280;69156;55.932;-3.238;2023-11-19T04:42:15;98733.40;;;11.38;100.00
79690;BME280;69156;55.932;-3.238;2023-11-19T04:44:43;98734.28;;;11.36;100.00
79690;BME280;69156;55.932;-3.238;2023-11-19T04:47:05;98738.59;;;11.51;100.00
79690;BME280;69156;55.932;-3.238;2023-11-19T04:49:31;98740.15;;;11.44;100.00
79690;BME280;69156;55.932;-3.238;2023-11-19T04:51:56;98740.11;;;11.54;100.00
79690;BME280;69156;55.932;-3.238;2023-11-19T04:54:22;98742.18;;;11.41;100.00
79690;BME280;69156;55.932;-3.238;2023-11-19T04:56:47;98743.90;;;11.41;100.00
79690;BME280;69156;55.932;-3.238;2023-11-19T04:59:12;98740.57;;;11.33;100.00
79690;BME280;69156;55.932;-3.238;2023-11-19T05:01:41;98737.64;;;11.38;100.00
79690;BME280;69156;55.932;-3.238;2023-11-19T05:04:07;98739.01;;;11.29;100.00
79690;BME280;69156;55.932;-3.238;2023-11-19T05:06:32;98734.45;;;11.44;100.00
79690;BME280;69156;55.932;-3.238;2023-11-19T05:08:59;98739.47;;;11.34;100.00
79690;BME280;69156;55.932;-3.238;2023-11-19T05:11:24;98742.96;;;11.33;100.00
79690;BME280;69156;55.932;-3.238;2023-11-19T05:13:50;98737.87;;;11.27;100.00
79690;BME280;69156;55.932;-3.238;2023-11-19T05:16:15;98737.16;;;11.24;100.00
79690;BME280;69156;55.932;-3.238;2023-11-19T05:18:40;98737.06;;;11.38;100.00
79690;BME280;69156;55.932;-3.238;2023-11-19T05:21:07;98735.17;;;11.20;100.00
79690;BME280;69156;55.932;-3.238;2023-11-19T05:23:34;98732.81;;;11.27;100.00
79690;BME280;69156;55.932;-3.238;2023-11-19T05:25:59;98728.89;;;11.40;100.00
79690;BME280;69156;55.932;-3.238;2023-11-19T05:28:25;98723.04;;;11.37;100.00
79690;BME280;69156;55.932;-3.238;2023-11-19T05:30:51;98723.64;;;11.38;100.00
79690;BME280;69156;55.932;-3.238;2023-11-19T05:33:17;98727.13;;;11.37;100.00
79690;BME280;69156;55.932;-3.238;2023-11-19T05:35:44;98726.74;;;11.30;100.00
79690;BME280;69156;55.932;-3.238;2023-11-19T05:38:10;98727.83;;;11.30;100.00
79690;BME280;69156;55.932;-3.238;2023-11-19T05:40:38;98727.09;;;11.29;100.00
79690;BME280;69156;55.932;-3.238;2023-11-19T05:43:05;98714.75;;;11.15;100.00
79690;BME280;69156;55.932;-3.238;2023-11-19T05:45:29;98723.64;;;11.23;100.00
79690;BME280;69156;55.932;-3.238;2023-11-19T05:47:57;98719.37;;;11.20;100.00
79690;BME280;69156;55.932;-3.238;2023-11-19T05:50:23;98727.93;;;11.37;100.00
79690;BME280;69156;55.932;-3.238;2023-11-19T05:52:48;98719.39;;;11.32;100.00
79690;BME280;69156;55.932;-3.238;2023-11-19T05:55:15;98722.17;;;11.08;100.00
79690;BME280;69156;55.932;-3.238;2023-11-19T05:57:43;98728.50;;;11.28;100.00
79690;BME280;69156;55.932;-3.238;2023-11-19T06:00:10;98733.49;;;11.11;100.00
79690;BME280;69156;55.932;-3.238;2023-11-19T06:02:34;98738.43;;;11.17;100.00
79690;BME280;69156;55.932;-3.238;2023-11-19T06:04:59;98733.81;;;11.19;100.00
79690;BME280;69156;55.932;-3.238;2023-11-19T06:07:25;98737.09;;;11.19;100.00
79690;BME280;69156;55.932;-3.238;2023-11-19T06:09:51;98735.63;;;11.27;100.00
79690;BME280;69156;55.932;-3.238;2023-11-19T06:12:17;98738.14;;;11.19;100.00
79690;BME280;69156;55.932;-3.238;2023-11-19T06:14:41;98726.71;;;11.20;100.00
79690;BME280;69156;55.932;-3.238;2023-11-19T06:17:07;98722.36;;;11.16;100.00
79690;BME280;69156;55.932;-3.238;2023-11-19T06:19:33;98722.35;;;11.19;100.00
79690;BME280;69156;55.932;-3.238;2023-11-19T06:21:59;98729.02;;;11.20;100.00
79690;BME280;69156;55.932;-3.238;2023-11-19T06:24:24;98727.01;;;11.32;100.00
79690;BME280;69156;55.932;-3.238;2023-11-19T06:26:49;98723.75;;;11.29;100.00
79690;BME280;69156;55.932;-3.238;2023-11-19T06:29:15;98736.76;;;11.04;100.00
79690;BME280;69156;55.932;-3.238;2023-11-19T06:31:42;98739.12;;;11.17;100.00
79690;BME280;69156;55.932;-3.238;2023-11-19T06:34:07;98741.55;;;11.29;100.00
79690;BME280;69156;55.932;-3.238;2023-11-19T06:36:32;98742.49;;;11.13;100.00
79690;BME280;69156;55.932;-3.238;2023-11-19T06:38:57;98740.99;;;11.19;100.00
79690;BME280;69156;55.932;-3.238;2023-11-19T06:41:23;98748.93;;;11.23;100.00
79690;BME280;69156;55.932;-3.238;2023-11-19T06:43:48;98749.77;;;11.16;100.00
79690;BME280;69156;55.932;-3.238;2023-11-19T06:46:15;98750.39;;;11.19;100.00
79690;BME280;69156;55.932;-3.238;2023-11-19T06:48:39;98750.96;;;11.17;100.00
79690;BME280;69156;55.932;-3.238;2023-11-19T06:51:05;98745.34;;;11.18;100.00
79690;BME280;69156;55.932;-3.238;2023-11-19T06:53:29;98751.79;;;11.32;100.00
79690;BME280;69156;55.932;-3.238;2023-11-19T06:55:55;98746.35;;;11.26;100.00
79690;BME280;69156;55.932;-3.238;2023-11-19T06:58:19;98749.50;;;11.28;100.00
79690;BME280;69156;55.932;-3.238;2023-11-19T07:00:45;98751.56;;;11.13;100.00
79690;BME280;69156;55.932;-3.238;2023-11-19T07:03:10;98757.35;;;11.12;100.00
79690;BME280;69156;55.932;-3.238;2023-11-19T07:05:36;98760.67;;;11.16;100.00
79690;BME280;69156;55.932;-3.238;2023-11-19T07:08:00;98765.14;;;11.20;100.00
79690;BME280;69156;55.932;-3.238;2023-11-19T07:10:26;98767.60;;;11.17;100.00
79690;BME280;69156;55.932;-3.238;2023-11-19T07:12:52;98767.29;;;11.22;100.00
79690;BME280;69156;55.932;-3.238;2023-11-19T07:15:19;98768.36;;;11.23;100.00
79690;BME280;69156;55.932;-3.238;2023-11-19T07:17:44;98766.94;;;11.15;100.00
79690;BME280;69156;55.932;-3.238;2023-11-19T07:20:11;98774.68;;;11.18;100.00
79690;BME280;69156;55.932;-3.238;2023-11-19T07:22:35;98772.85;;;11.24;100.00
79690;BME280;69156;55.932;-3.238;2023-11-19T07:25:00;98777.28;;;11.07;100.00
79690;BME280;69156;55.932;-3.238;2023-11-19T07:27:26;98778.43;;;11.16;100.00
79690;BME280;69156;55.932;-3.238;2023-11-19T07:29:51;98785.02;;;11.14;100.00
79690;BME280;69156;55.932;-3.238;2023-11-19T07:32:16;98787.19;;;11.11;100.00
79690;BME280;69156;55.932;-3.238;2023-11-19T07:34:42;98778.40;;;11.22;100.00
79690;BME280;69156;55.932;-3.238;2023-11-19T07:37:07;98781.64;;;11.22;100.00
79690;BME280;69156;55.932;-3.238;2023-11-19T07:39:33;98787.04;;;11.17;100.00
79690;BME280;69156;55.932;-3.238;2023-11-19T07:41:59;98796.78;;;11.10;100.00
79690;BME280;69156;55.932;-3.238;2023-11-19T07:44:25;98794.31;;;11.12;100.00
79690;BME280;69156;55.932;-3.238;2023-11-19T07:46:51;98795.67;;;11.15;100.00
79690;BME280;69156;55.932;-3.238;2023-11-19T07:49:17;98787.84;;;11.20;100.00
79690;BME280;69156;55.932;-3.238;2023-11-19T07:51:42;98794.62;;;11.22;100.00
79690;BME280;69156;55.932;-3.238;2023-11-19T07:54:08;98794.80;;;11.20;100.00
79690;BME280;69156;55.932;-3.238;2023-11-19T07:56:33;98805.05;;;11.23;100.00
79690;BME280;69156;55.932;-3.238;2023-11-19T07:58:59;98801.04;;;11.29;100.00
79690;BME280;69156;55.932;-3.238;2023-11-19T08:01:24;98803.30;;;11.35;100.00
79690;BME280;69156;55.932;-3.238;2023-11-19T08:03:50;98812.86;;;11.16;100.00
79690;BME280;69156;55.932;-3.238;2023-11-19T08:06:15;98814.81;;;11.19;100.00
79690;BME280;69156;55.932;-3.238;2023-11-19T08:08:40;98817.41;;;11.26;100.00
79690;BME280;69156;55.932;-3.238;2023-11-19T08:11:06;98819.82;;;11.14;100.00
79690;BME280;69156;55.932;-3.238;2023-11-19T08:13:31;98825.64;;;11.21;100.00
79690;BME280;69156;55.932;-3.238;2023-11-19T08:15:57;98816.93;;;11.31;100.00
79690;BME280;69156;55.932;-3.238;2023-11-19T08:18:22;98815.35;;;11.26;100.00
79690;BME280;69156;55.932;-3.238;2023-11-19T08:20:48;98813.32;;;11.34;100.00
79690;BME280;69156;55.932;-3.238;2023-11-19T08:23:13;98815.85;;;11.22;100.00
79690;BME280;69156;55.932;-3.238;2023-11-19T08:25:39;98817.71;;;11.24;100.00
79690;BME280;69156;55.932;-3.238;2023-11-19T08:28:04;98819.30;;;11.33;100.00
79690;BME280;69156;55.932;-3.238;2023-11-19T08:30:30;98814.13;;;11.31;100.00
79690;BME280;69156;55.932;-3.238;2023-11-19T08:32:55;98813.96;;;11.35;100.00
79690;BME280;69156;55.932;-3.238;2023-11-19T08:35:21;98822.70;;;11.41;100.00
79690;BME280;69156;55.932;-3.238;2023-11-19T08:37:46;98823.24;;;11.48;100.00
79690;BME280;69156;55.932;-3.238;2023-11-19T08:40:12;98823.44;;;11.37;100.00
79690;BME280;69156;55.932;-3.238;2023-11-19T08:42:37;98820.78;;;11.43;100.00
79690;BME280;69156;55.932;-3.238;2023-11-19T08:45:04;98822.66;;;11.52;100.00
79690;BME280;69156;55.932;-3.238;2023-11-19T08:47:28;98820.74;;;11.50;100.00
79690;BME280;69156;55.932;-3.238;2023-11-19T08:49:53;98824.17;;;11.40;100.00
79690;BME280;69156;55.932;-3.238;2023-11-19T08:52:19;98824.26;;;11.45;100.00
79690;BME280;69156;55.932;-3.238;2023-11-19T08:54:44;98823.69;;;11.49;100.00
79690;BME280;69156;55.932;-3.238;2023-11-19T08:57:10;98831.72;;;11.57;100.00
79690;BME280;69156;55.932;-3.238;2023-11-19T08:59:36;98835.20;;;11.54;100.00
79690;BME280;69156;55.932;-3.238;2023-11-19T09:02:01;98835.97;;;11.63;100.00
79690;BME280;69156;55.932;-3.238;2023-11-19T09:04:26;98831.17;;;11.61;100.00
79690;BME280;69156;55.932;-3.238;2023-11-19T09:06:52;98835.24;;;11.56;100.00
79690;BME280;69156;55.932;-3.238;2023-11-19T09:09:17;98840.66;;;11.47;100.00
79690;BME280;69156;55.932;-3.238;2023-11-19T09:11:42;98836.55;;;11.62;100.00
79690;BME280;69156;55.932;-3.238;2023-11-19T09:14:08;98838.45;;;11.59;100.00
79690;BME280;69156;55.932;-3.238;2023-11-19T09:16:33;98833.40;;;11.53;100.00
79690;BME280;69156;55.932;-3.238;2023-11-19T09:18:59;98833.39;;;11.65;100.00
79690;BME280;69156;55.932;-3.238;2023-11-19T09:21:24;98835.48;;;11.70;100.00
79690;BME280;69156;55.932;-3.238;2023-11-19T09:23:50;98836.92;;;11.70;100.00
79690;BME280;69156;55.932;-3.238;2023-11-19T09:26:16;98836.22;;;11.71;100.00
79690;BME280;69156;55.932;-3.238;2023-11-19T09:28:41;98836.50;;;11.68;100.00
79690;BME280;69156;55.932;-3.238;2023-11-19T09:31:13;98834.30;;;11.80;100.00
79690;BME280;69156;55.932;-3.238;2023-11-19T09:33:32;98835.68;;;11.68;100.00
79690;BME280;69156;55.932;-3.238;2023-11-19T09:35:58;98829.75;;;11.75;100.00
79690;BME280;69156;55.932;-3.238;2023-11-19T09:38:23;98835.96;;;11.71;100.00
79690;BME280;69156;55.932;-3.238;2023-11-19T09:40:48;98829.60;;;11.81;100.00
79690;BME280;69156;55.932;-3.238;2023-11-19T09:43:14;98833.20;;;11.71;100.00
79690;BME280;69156;55.932;-3.238;2023-11-19T09:45:46;98835.10;;;11.72;100.00
79690;BME280;69156;55.932;-3.238;2023-11-19T09:48:06;98831.73;;;11.69;100.00
79690;BME280;69156;55.932;-3.238;2023-11-19T09:50:32;98839.03;;;11.80;100.00
79690;BME280;69156;55.932;-3.238;2023-11-19T09:52:58;98843.65;;;11.92;100.00
79690;BME280;69156;55.932;-3.238;2023-11-19T09:55:24;98851.92;;;11.83;100.00
79690;BME280;69156;55.932;-3.238;2023-11-19T09:57:50;98853.29;;;11.98;100.00
79690;BME280;69156;55.932;-3.238;2023-11-19T10:00:15;98851.29;;;12.07;100.00
79690;BME280;69156;55.932;-3.238;2023-11-19T10:02:40;98854.39;;;12.13;100.00
79690;BME280;69156;55.932;-3.238;2023-11-19T10:05:07;98855.35;;;12.10;100.00
79690;BME280;69156;55.932;-3.238;2023-11-19T10:07:31;98855.86;;;12.00;100.00
79690;BME280;69156;55.932;-3.238;2023-11-19T10:09:56;98862.71;;;12.05;100.00
79690;BME280;69156;55.932;-3.238;2023-11-19T10:12:21;98864.09;;;12.17;100.00
79690;BME280;69156;55.932;-3.238;2023-11-19T10:14:48;98869.63;;;12.27;100.00
79690;BME280;69156;55.932;-3.238;2023-11-19T10:17:13;98868.82;;;12.10;100.00
79690;BME280;69156;55.932;-3.238;2023-11-19T10:19:40;98870.14;;;12.16;100.00
79690;BME280;69156;55.932;-3.238;2023-11-19T10:22:05;98867.91;;;12.25;100.00
79690;BME280;69156;55.932;-3.238;2023-11-19T10:24:31;98872.26;;;12.17;100.00
79690;BME280;69156;55.932;-3.238;2023-11-19T10:26:59;98874.54;;;12.21;100.00
79690;BME280;69156;55.932;-3.238;2023-11-19T10:29:23;98873.66;;;12.26;100.00
79690;BME280;69156;55.932;-3.238;2023-11-19T10:31:56;98875.86;;;12.44;100.00
79690;BME280;69156;55.932;-3.238;2023-11-19T10:34:25;98872.52;;;12.49;100.00
79690;BME280;69156;55.932;-3.238;2023-11-19T10:36:39;98875.26;;;12.56;100.00
79690;BME280;69156;55.932;-3.238;2023-11-19T10:39:04;98875.61;;;12.53;100.00
79690;BME280;69156;55.932;-3.238;2023-11-19T10:41:32;98877.28;;;12.57;100.00
79690;BME280;69156;55.932;-3.238;2023-11-19T10:43:57;98878.43;;;12.53;100.00
79690;BME280;69156;55.932;-3.238;2023-11-19T10:46:21;98884.33;;;12.67;100.00
79690;BME280;69156;55.932;-3.238;2023-11-19T10:48:46;98888.33;;;12.84;100.00
79690;BME280;69156;55.932;-3.238;2023-11-19T10:51:16;98890.87;;;12.84;100.00
79690;BME280;69156;55.932;-3.238;2023-11-19T10:53:38;98892.47;;;12.85;100.00
79690;BME280;69156;55.932;-3.238;2023-11-19T10:56:06;98890.45;;;12.89;100.00
79690;BME280;69156;55.932;-3.238;2023-11-19T10:58:33;98890.33;;;12.90;100.00
79690;BME280;69156;55.932;-3.238;2023-11-19T11:01:02;98898.59;;;12.99;100.00
79690;BME280;69156;55.932;-3.238;2023-11-19T11:03:29;98900.15;;;13.06;100.00
79690;BME280;69156;55.932;-3.238;2023-11-19T11:05:53;98903.25;;;13.14;100.00
79690;BME280;69156;55.932;-3.238;2023-11-19T11:08:19;98902.09;;;12.96;100.00
79690;BME280;69156;55.932;-3.238;2023-11-19T11:10:45;98906.94;;;13.02;100.00
79690;BME280;69156;55.932;-3.238;2023-11-19T11:13:08;98909.78;;;12.96;100.00
79690;BME280;69156;55.932;-3.238;2023-11-19T11:15:34;98909.41;;;13.32;100.00
79690;BME280;69156;55.932;-3.238;2023-11-19T11:18:01;98912.91;;;13.18;100.00
79690;BME280;69156;55.932;-3.238;2023-11-19T11:20:25;98915.05;;;13.08;100.00
79690;BME280;69156;55.932;-3.238;2023-11-19T11:22:57;98905.47;;;13.28;100.00
79690;BME280;69156;55.932;-3.238;2023-11-19T11:25:23;98909.78;;;13.25;100.00
79690;BME280;69156;55.932;-3.238;2023-11-19T11:27:51;98916.34;;;13.17;100.00
79690;BME280;69156;55.932;-3.238;2023-11-19T11:30:13;98917.74;;;13.18;100.00
79690;BME280;69156;55.932;-3.238;2023-11-19T11:32:37;98912.09;;;13.30;100.00
79690;BME280;69156;55.932;-3.238;2023-11-19T11:35:10;98918.39;;;13.24;100.00
79690;BME280;69156;55.932;-3.238;2023-11-19T11:37:29;98916.08;;;13.16;100.00
79690;BME280;69156;55.932;-3.238;2023-11-19T11:39:50;98920.70;;;13.36;100.00
79690;BME280;69156;55.932;-3.238;2023-11-19T11:42:46;98920.40;;;13.27;100.00
79690;BME280;69156;55.932;-3.238;2023-11-19T11:45:13;98921.52;;;13.31;100.00
79690;BME280;69156;55.932;-3.238;2023-11-19T11:47:06;98917.48;;;13.28;100.00
79690;BME280;69156;55.932;-3.238;2023-11-19T11:49:32;98916.44;;;13.24;100.00
79690;BME280;69156;55.932;-3.238;2023-11-19T11:52:00;98913.51;;;13.34;100.00
79690;BME280;69156;55.932;-3.238;2023-11-19T11:54:27;98916.36;;;13.24;100.00
79690;BME280;69156;55.932;-3.238;2023-11-19T11:57:01;98911.96;;;13.21;100.00
79690;BME280;69156;55.932;-3.238;2023-11-19T11:59:18;98909.44;;;13.24;100.00
79690;BME280;69156;55.932;-3.238;2023-11-19T12:01:57;98910.38;;;13.30;100.00
79690;BME280;69156;55.932;-3.238;2023-11-19T12:04:05;98906.91;;;13.41;100.00
79690;BME280;69156;55.932;-3.238;2023-11-19T12:06:32;98913.90;;;13.34;100.00
79690;BME280;69156;55.932;-3.238;2023-11-19T12:08:59;98914.70;;;13.44;100.00
79690;BME280;69156;55.932;-3.238;2023-11-19T12:11:24;98915.74;;;13.39;100.00
79690;BME280;69156;55.932;-3.238;2023-11-19T12:13:55;98912.72;;;13.47;100.00
79690;BME280;69156;55.932;-3.238;2023-11-19T12:16:13;98912.75;;;13.42;100.00
79690;BME280;69156;55.932;-3.238;2023-11-19T12:18:39;98915.57;;;13.53;100.00
79690;BME280;69156;55.932;-3.238;2023-11-19T12:21:04;98918.30;;;13.48;100.00
79690;BME280;69156;55.932;-3.238;2023-11-19T12:23:30;98917.29;;;13.54;100.00
79690;BME280;69156;55.932;-3.238;2023-11-19T12:25:56;98918.05;;;13.62;100.00
79690;BME280;69156;55.932;-3.238;2023-11-19T12:28:21;98919.39;;;13.63;100.00
79690;BME280;69156;55.932;-3.238;2023-11-19T12:30:46;98924.48;;;13.69;100.00